Time;durP1;ratioP1;P1;durP2;ratioP2;P2;SDS_P1;SDS_P2;PMS_P1;PMS_P2;Temp;Humidity;BMP_temperature;BMP_pressure;BME280_temperature;BME280_humidity;BME280_pressure;Samples;Min_cycle;Max_cycle;Signal;HPM_P1;HPM_P2
2022/01/20 00:02:00;;;;;;;26.38;2.78;;;1.40;75.60;;;;;;4208332;28;20024;-84
2022/01/20 00:04:00;;;;;;;22.80;2.83;;;1.40;75.60;;;;;;4173635;28;20111;-86
2022/01/20 00:26:28;;;;;;;17.33;2.53;;;1.30;66.60;;;;;;4172047;28;20025;-85
2022/01/20 00:28:41;;;;;;;21.42;2.92;;;1.20;61.70;;;;;;4177993;28;20035;-86
2022/01/20 00:30:49;;;;;;;;;;;1.30;60.40;;;;;;4161298;28;20049;-85
2022/01/20 00:33:12;;;;;;;36.90;2.78;;;1.30;59.30;;;;;;4186713;28;19922;-85
2022/01/20 00:35:20;;;;;;;17.80;2.07;;;1.30;57.40;;;;;;4175517;28;20032;-85
2022/01/20 00:37:22;;;;;;;20.25;2.10;;;1.30;56.10;;;;;;4178950;28;20291;-85
2022/01/20 00:39:22;;;;;;;23.80;2.80;;;1.40;56.80;;;;;;4159745;28;20057;-85
2022/01/20 00:41:23;;;;;;;20.80;2.70;;;1.40;56.40;;;;;;4211263;28;20024;-85
2022/01/20 00:43:24;;;;;;;23.20;3.03;;;1.50;56.60;;;;;;4179338;28;20033;-86
2022/01/20 00:45:24;;;;;;;17.90;2.15;;;1.50;57.00;;;;;;4194040;28;20473;-85
2022/01/20 00:47:25;;;;;;;23.50;2.88;;;1.50;57.00;;;;;;4177959;28;20025;-86
2022/01/20 00:49:26;;;;;;;18.75;2.65;;;1.50;56.20;;;;;;4148606;28;20403;-85
2022/01/20 00:51:26;;;;;;;24.05;3.15;;;1.40;56.30;;;;;;4177629;28;20100;-85
2022/01/20 00:53:27;;;;;;;22.15;2.90;;;1.40;56.30;;;;;;4192744;28;20058;-84
2022/01/20 00:55:27;;;;;;;20.95;2.97;;;1.40;56.50;;;;;;4180104;28;20091;-85
2022/01/20 00:57:28;;;;;;;17.35;2.53;;;1.40;56.20;;;;;;4168963;28;20137;-84
2022/01/20 00:59:29;;;;;;;30.80;4.95;;;1.40;55.70;;;;;;4177296;28;20075;-86
2022/01/20 01:01:30;;;;;;;27.60;3.67;;;1.40;56.50;;;;;;4180380;28;20028;-85
2022/01/20 01:03:30;;;;;;;27.40;3.30;;;1.40;57.70;;;;;;4166125;28;20040;-84
2022/01/20 01:05:34;;;;;;;18.63;2.72;;;1.30;59.10;;;;;;4170506;28;20568;-84
2022/01/20 01:09:38;;;;;;;17.05;2.50;;;1.20;64.20;;;;;;4178672;28;20100;-84
2022/01/20 01:11:40;;;;;;;;;;;1.20;65.70;;;;;;4159535;28;20026;-85
2022/01/20 01:13:40;;;;;;;23.88;3.40;;;1.10;66.50;;;;;;4178256;28;19923;-85
2022/01/20 01:15:45;;;;;;;23.83;2.22;;;1.10;67.10;;;;;;4211229;28;20060;-84
2022/01/20 01:20:15;;;;;;;20.35;3.08;;;0.90;66.30;;;;;;4168795;28;20017;-84
2022/01/20 01:24:16;;;;;;;14.15;2.10;;;0.70;66.00;;;;;;4207957;28;20780;-83
2022/01/20 01:26:18;;;;;;;9.35;1.40;;;0.60;66.10;;;;;;4161939;28;20029;-84
2022/01/20 01:28:20;;;;;;;20.60;2.50;;;0.60;66.60;;;;;;4192804;28;20032;-84
2022/01/20 01:30:39;;;;;;;32.90;3.00;;;0.60;67.10;;;;;;4175767;28;20450;-84
2022/01/20 01:32:52;;;;;;;24.88;3.25;;;0.50;67.40;;;;;;4178140;28;21834;-84
2022/01/20 01:34:53;;;;;;;22.13;3.20;;;0.50;68.50;;;;;;4179151;28;20037;-84
2022/01/20 01:39:00;;;;;;;17.02;1.90;;;0.40;68.10;;;;;;4176736;28;20555;-84
2022/01/20 01:41:08;;;;;;;25.10;2.58;;;0.40;68.40;;;;;;4210368;28;20028;-84
2022/01/20 01:43:17;;;;;;;25.75;2.50;;;0.50;68.50;;;;;;4174755;28;20029;-84
2022/01/20 01:45:26;;;;;;;22.38;3.20;;;0.40;68.60;;;;;;4147150;28;20083;-84
2022/01/20 01:47:26;;;;;;;20.23;2.80;;;0.40;69.80;;;;;;4177380;28;20406;-84
2022/01/20 01:49:27;;;;;;;25.10;2.90;;;0.40;70.50;;;;;;4202015;28;20036;-84
2022/01/20 01:51:28;;;;;;;15.75;2.20;;;0.40;71.10;;;;;;4177504;28;20395;-83
2022/01/20 01:53:28;;;;;;;8.23;2.17;;;0.40;71.40;;;;;;4177565;28;20029;-84
2022/01/20 01:55:29;;;;;;;17.80;1.70;;;0.30;69.90;;;;;;4178995;28;20029;-84
2022/01/20 01:57:30;;;;;;;21.65;1.45;;;0.20;69.50;;;;;;4178174;28;20028;-83
2022/01/20 01:59:30;;;;;;;9.88;1.10;;;0.10;69.50;;;;;;4168148;28;20034;-84
2022/01/20 02:01:34;;;;;;;15.13;1.85;;;0.10;69.90;;;;;;4177914;28;20496;-84
2022/01/20 02:03:43;;;;;;;21.85;2.35;;;0.10;70.20;;;;;;4177678;28;20753;-85
2022/01/20 02:19:10;;;;;;;9.85;1.80;;;-0.30;70.50;;;;;;4176787;28;20484;-85
2022/01/20 02:21:10;;;;;;;6.75;1.42;;;-0.30;70.60;;;;;;4161157;28;20061;-85
2022/01/20 02:23:11;;;;;;;14.05;1.17;;;-0.30;71.00;;;;;;4163716;28;20084;-85
2022/01/20 02:25:22;;;;;;;9.45;1.48;;;-0.40;71.20;;;;;;4158889;28;20418;-84
2022/01/20 02:27:22;;;;;;;15.93;2.15;;;-0.40;71.40;;;;;;4169118;28;20517;-85
2022/01/20 02:29:23;;;;;;;10.25;1.40;;;-0.40;71.10;;;;;;4174370;28;20087;-86
2022/01/20 02:31:24;;;;;;;9.05;1.67;;;-0.50;71.30;;;;;;4178566;28;20433;-85
2022/01/20 02:33:26;;;;;;;9.68;1.85;;;-0.50;72.50;;;;;;4174352;28;20056;-84
2022/01/20 02:35:29;;;;;;;14.48;1.50;;;-0.50;72.00;;;;;;4177246;28;20087;-85
2022/01/20 02:37:30;;;;;;;14.02;2.28;;;-0.50;72.40;;;;;;4173925;28;20033;-85
2022/01/20 02:46:10;;;;;;;19.52;2.47;;;-0.60;72.00;;;;;;4156238;28;20025;-84
2022/01/20 02:48:11;;;;;;;22.77;2.17;;;-0.60;72.10;;;;;;4177070;28;20071;-85
2022/01/20 02:50:11;;;;;;;11.70;1.92;;;-0.60;71.90;;;;;;4189453;28;20532;-84
2022/01/20 02:52:13;;;;;;;19.30;1.92;;;-0.60;71.60;;;;;;4165843;28;20070;-84
2022/01/20 02:54:13;;;;;;;17.77;1.88;;;-0.60;70.90;;;;;;4177422;28;20136;-85
2022/01/20 02:56:14;;;;;;;19.80;2.78;;;-0.60;70.20;;;;;;4175361;28;20025;-84
2022/01/20 02:58:15;;;;;;;15.65;1.92;;;-0.50;69.80;;;;;;4159436;28;20485;-84
2022/01/20 03:00:15;;;;;;;29.98;2.90;;;-0.50;69.00;;;;;;4163681;28;20369;-85
2022/01/20 03:02:16;;;;;;;17.38;2.05;;;-0.50;67.30;;;;;;4191285;28;20029;-85
2022/01/20 03:04:17;;;;;;;22.48;2.28;;;-0.40;66.60;;;;;;4159447;28;20036;-85
2022/01/20 03:06:18;;;;;;;22.02;2.95;;;-0.40;66.40;;;;;;4159195;28;20030;-83
2022/01/20 03:08:18;;;;;;;23.17;2.95;;;-0.30;66.20;;;;;;4159166;28;20124;-84
2022/01/20 03:10:19;;;;;;;18.40;2.22;;;-0.30;65.80;;;;;;4173767;28;20035;-82
2022/01/20 03:12:19;;;;;;;19.27;2.10;;;-0.30;65.50;;;;;;4171706;28;20068;-82
2022/01/20 03:14:20;;;;;;;26.88;2.92;;;-0.20;65.10;;;;;;4176151;28;20086;-83
2022/01/20 03:16:21;;;;;;;21.25;2.95;;;-0.20;65.20;;;;;;4152133;28;20030;-82
2022/01/20 03:18:21;;;;;;;16.65;2.35;;;-0.20;65.00;;;;;;4172347;28;20025;-83
2022/01/20 03:20:22;;;;;;;19.10;2.15;;;-0.10;65.20;;;;;;4189310;28;20036;-84
2022/01/20 03:22:22;;;;;;;28.30;3.30;;;-0.10;65.20;;;;;;4176137;28;20041;-84
2022/01/20 03:24:23;;;;;;;29.45;3.22;;;-0.10;65.00;;;;;;4160316;28;20060;-83
2022/01/20 03:26:23;;;;;;;29.77;3.88;;;-0.10;65.50;;;;;;4175679;28;20810;-84
2022/01/20 03:28:24;;;;;;;27.08;2.70;;;0.00;65.40;;;;;;4193286;28;20043;-83
2022/01/20 03:30:26;;;;;;;23.85;3.10;;;-0.10;64.90;;;;;;4177652;28;20466;-83
2022/01/20 03:32:26;;;;;;;17.63;2.63;;;0.00;64.30;;;;;;4191281;28;20029;-83
2022/01/20 03:34:27;;;;;;;36.33;3.67;;;0.00;63.90;;;;;;4160140;28;20053;-83
2022/01/20 03:36:27;;;;;;;22.63;3.15;;;-0.10;63.00;;;;;;4175667;28;20087;-83
2022/01/20 03:38:28;;;;;;;25.38;2.88;;;0.00;63.20;;;;;;4176793;28;20033;-83
2022/01/20 03:40:29;;;;;;;28.00;3.30;;;0.00;62.70;;;;;;4176706;28;20027;-83
2022/01/20 03:42:29;;;;;;;21.00;2.78;;;0.00;62.50;;;;;;4179187;28;20021;-83
2022/01/20 03:44:30;;;;;;;23.98;2.95;;;0.10;62.00;;;;;;4160207;28;20037;-84
2022/01/20 03:46:31;;;;;;;26.17;3.20;;;0.10;61.50;;;;;;4196016;28;20035;-83
2022/01/20 03:48:37;;;;;;;25.23;3.40;;;0.10;60.70;;;;;;4180470;28;20021;-83
2022/01/20 03:52:57;;;;;;;25.52;3.60;;;0.10;60.20;;;;;;4177144;28;20048;-84
2022/01/20 03:54:58;;;;;;;25.92;3.33;;;0.20;59.90;;;;;;4147183;28;20025;-84
2022/01/20 03:56:59;;;;;;;25.65;2.92;;;0.20;60.00;;;;;;4163010;28;20200;-84
2022/01/20 03:58:59;;;;;;;19.10;3.13;;;0.20;60.10;;;;;;4179100;28;20032;-83
2022/01/20 04:01:00;;;;;;;22.92;3.38;;;0.20;59.60;;;;;;4146557;28;20459;-83
2022/01/20 04:03:00;;;;;;;23.65;3.33;;;0.30;59.50;;;;;;4178604;28;20029;-83
2022/01/20 04:05:01;;;;;;;30.73;3.92;;;0.30;59.10;;;;;;4161103;28;20035;-84
2022/01/20 04:07:02;;;;;;;29.25;3.25;;;0.30;58.50;;;;;;4171839;28;20029;-82
2022/01/20 04:09:03;;;;;;;16.40;2.97;;;0.30;58.50;;;;;;4158885;28;20033;-82
2022/01/20 04:11:05;;;;;;;23.05;2.92;;;0.30;58.40;;;;;;4192985;28;20574;-82
2022/01/20 04:13:06;;;;;;;25.20;2.85;;;0.30;57.80;;;;;;4175540;28;20041;-82
2022/01/20 04:15:09;;;;;;;25.48;3.10;;;0.30;57.60;;;;;;4178172;28;20116;-82
2022/01/20 04:17:15;;;;;;;18.50;3.17;;;0.40;57.70;;;;;;4174195;28;20390;-82
2022/01/20 04:19:15;;;;;;;34.58;3.40;;;0.40;57.10;;;;;;4209081;28;20024;-82
2022/01/20 04:21:16;;;;;;;17.70;3.20;;;0.40;57.00;;;;;;4175485;28;20025;-83
2022/01/20 04:23:17;;;;;;;28.65;2.97;;;0.40;56.20;;;;;;4177200;28;20029;-82
2022/01/20 04:25:17;;;;;;;18.17;3.03;;;0.40;56.50;;;;;;4162507;28;20474;-82
2022/01/20 04:27:18;;;;;;;24.55;2.97;;;0.50;56.90;;;;;;4181512;28;20366;-82
2022/01/20 04:29:18;;;;;;;22.55;3.03;;;0.50;56.10;;;;;;4180633;28;20040;-82
2022/01/20 04:31:20;;;;;;;18.25;1.88;;;0.50;56.00;;;;;;4179049;28;20428;-83
2022/01/20 04:33:20;;;;;;;23.88;2.83;;;0.50;56.20;;;;;;4175316;28;20093;-83
2022/01/20 04:35:21;;;;;;;32.85;3.47;;;0.50;56.40;;;;;;4177528;28;20029;-83
2022/01/20 04:37:22;;;;;;;24.85;3.17;;;0.50;56.30;;;;;;4184293;28;20044;-83
2022/01/20 04:39:26;;;;;;;23.48;3.35;;;0.50;56.60;;;;;;4211693;28;20221;-82
2022/01/20 04:41:30;;;;;;;34.03;3.97;;;0.50;56.90;;;;;;4169965;28;20029;-83
2022/01/20 04:43:30;;;;;;;37.03;4.03;;;0.50;57.00;;;;;;4178201;28;20048;-83
2022/01/20 04:45:36;;;;;;;20.98;2.85;;;0.50;57.20;;;;;;4179055;28;20394;-84
2022/01/20 04:47:55;;;;;;;24.30;4.18;;;0.50;57.10;;;;;;4171415;28;20017;-83
2022/01/20 04:59:13;;;;;;;28.17;2.95;;;0.50;57.70;;;;;;4177097;28;20072;-83
2022/01/20 05:01:13;;;;;;;23.92;3.42;;;0.40;57.80;;;;;;4177857;28;20037;-83
2022/01/20 05:03:15;;;;;;;33.08;3.92;;;0.40;58.00;;;;;;4158362;28;20033;-85
2022/01/20 05:05:15;;;;;;;23.00;3.28;;;0.40;58.30;;;;;;4174195;28;20484;-85
2022/01/20 05:07:23;;;;;;;34.75;4.25;;;0.40;58.30;;;;;;4174303;28;20044;-83
2022/01/20 05:09:23;;;;;;;35.00;4.25;;;0.40;58.40;;;;;;4174606;28;20033;-82
2022/01/20 05:11:24;;;;;;;15.48;3.17;;;0.40;58.80;;;;;;4172369;28;20044;-82
2022/01/20 05:13:32;;;;;;;19.08;3.10;;;0.40;58.90;;;;;;4176798;28;20490;-82
2022/01/20 05:15:33;;;;;;;26.08;3.28;;;0.40;58.60;;;;;;4174219;28;20029;-82
2022/01/20 05:17:34;;;;;;;28.10;3.15;;;0.40;58.90;;;;;;4175355;28;20032;-82
2022/01/20 05:19:35;;;;;;;25.00;3.05;;;0.40;58.80;;;;;;4174238;28;20025;-82
2022/01/20 05:21:35;;;;;;;30.55;3.35;;;0.40;58.80;;;;;;4172168;28;20036;-82
2022/01/20 05:23:36;;;;;;;28.45;4.07;;;0.40;58.90;;;;;;4159807;28;20482;-82
2022/01/20 05:25:36;;;;;;;24.83;3.08;;;0.40;58.90;;;;;;4205010;28;20949;-83
2022/01/20 05:27:37;;;;;;;25.35;3.60;;;0.40;58.90;;;;;;4175580;28;20028;-83
2022/01/20 05:29:38;;;;;;;31.08;3.05;;;0.40;58.80;;;;;;4172050;28;20033;-83
2022/01/20 05:31:38;;;;;;;20.38;2.88;;;0.40;59.00;;;;;;4175135;28;20039;-83
2022/01/20 05:33:39;;;;;;;27.85;3.00;;;0.40;59.10;;;;;;4187878;28;20032;-83
2022/01/20 05:35:39;;;;;;;28.35;3.03;;;0.40;59.00;;;;;;4175651;28;20029;-83
2022/01/20 05:37:40;;;;;;;19.33;2.92;;;0.40;59.20;;;;;;4176915;28;20446;-83
2022/01/20 05:39:41;;;;;;;26.90;2.53;;;0.40;59.30;;;;;;4175167;28;20414;-83
2022/01/20 05:41:41;;;;;;;20.15;2.90;;;0.50;59.00;;;;;;4190312;28;20040;-83
2022/01/20 05:43:42;;;;;;;24.42;3.15;;;0.50;59.30;;;;;;4173298;28;20512;-83
2022/01/20 05:45:43;;;;;;;32.13;3.17;;;0.50;59.40;;;;;;4157966;28;20060;-83
2022/01/20 05:47:46;;;;;;;19.70;3.00;;;0.50;59.00;;;;;;4174495;28;20040;-83
2022/01/20 05:49:46;;;;;;;17.35;2.70;;;0.50;59.30;;;;;;4174330;28;20027;-83
2022/01/20 05:51:52;;;;;;;25.17;2.60;;;0.50;59.10;;;;;;4174024;28;20254;-83
2022/01/20 05:53:53;;;;;;;17.00;2.30;;;0.50;59.20;;;;;;4178811;28;20033;-83
2022/01/20 05:55:53;;;;;;;21.70;2.88;;;0.50;59.30;;;;;;4160120;28;20108;-83
2022/01/20 05:57:54;;;;;;;18.98;2.60;;;0.50;59.10;;;;;;4177051;28;20087;-83
2022/01/20 05:59:54;;;;;;;22.83;2.78;;;0.50;59.20;;;;;;4178442;28;20024;-83
2022/01/20 06:01:59;;;;;;;30.38;3.53;;;0.50;59.50;;;;;;4177093;28;20401;-83
2022/01/20 06:03:59;;;;;;;17.95;2.72;;;0.50;59.30;;;;;;4169609;28;20030;-83
2022/01/20 06:06:00;;;;;;;25.98;2.90;;;0.50;59.40;;;;;;4176971;28;20507;-83
2022/01/20 06:08:01;;;;;;;21.75;3.78;;;0.60;59.50;;;;;;4176155;28;20885;-83
2022/01/20 06:10:01;;;;;;;25.83;3.38;;;0.60;59.70;;;;;;4156914;28;20032;-83
2022/01/20 06:12:02;;;;;;;24.05;3.40;;;0.60;59.70;;;;;;4170794;28;20037;-83
2022/01/20 06:14:04;;;;;;;28.10;2.97;;;0.60;60.00;;;;;;4172258;28;20040;-83
2022/01/20 06:16:05;;;;;;;42.92;4.03;;;0.60;59.70;;;;;;4191625;28;20028;-83
2022/01/20 06:18:06;;;;;;;24.08;3.22;;;0.60;59.90;;;;;;4177157;28;20398;-83
2022/01/20 06:20:07;;;;;;;21.70;3.33;;;0.60;59.90;;;;;;4170642;28;20086;-83
2022/01/20 06:22:13;;;;;;;21.90;3.20;;;0.50;60.00;;;;;;4206499;28;20039;-83
2022/01/20 06:24:13;;;;;;;21.25;3.45;;;0.60;60.10;;;;;;4177907;28;20068;-83
2022/01/20 06:26:14;;;;;;;26.38;2.70;;;0.60;60.40;;;;;;4158117;28;20057;-83
2022/01/20 06:28:15;;;;;;;20.88;2.88;;;0.60;60.50;;;;;;4198427;28;20069;-83
2022/01/20 06:30:15;;;;;;;23.05;3.25;;;0.60;60.70;;;;;;4175750;28;20036;-83
2022/01/20 06:32:16;;;;;;;25.17;3.00;;;0.60;60.80;;;;;;4144857;28;20202;-83
2022/01/20 06:34:16;;;;;;;28.10;3.45;;;0.60;61.20;;;;;;4159554;28;20093;-83
2022/01/20 06:36:17;;;;;;;23.90;3.08;;;0.60;61.70;;;;;;4166175;28;20445;-84
2022/01/20 06:38:18;;;;;;;18.23;2.88;;;0.60;62.20;;;;;;4176335;28;20036;-83
2022/01/20 06:40:19;;;;;;;29.02;3.75;;;0.60;62.60;;;;;;4156892;28;20029;-83
2022/01/20 06:42:19;;;;;;;23.17;2.95;;;0.50;62.80;;;;;;4188826;28;20401;-83
2022/01/20 06:44:21;;;;;;;24.17;3.05;;;0.50;63.10;;;;;;4173698;28;20036;-83
2022/01/20 06:46:21;;;;;;;30.23;3.35;;;0.50;63.30;;;;;;4176722;28;20053;-84
2022/01/20 06:48:22;;;;;;;26.63;3.17;;;0.50;63.40;;;;;;4161132;28;20029;-83
2022/01/20 06:50:23;;;;;;;22.20;3.13;;;0.50;63.50;;;;;;4175481;28;20087;-82
2022/01/20 06:52:24;;;;;;;19.67;2.78;;;0.50;63.50;;;;;;4176210;28;20111;-83
2022/01/20 06:54:25;;;;;;;23.70;2.95;;;0.50;63.80;;;;;;4178180;28;20064;-83
2022/01/20 06:56:25;;;;;;;20.02;2.92;;;0.50;63.90;;;;;;4204399;28;20036;-82
2022/01/20 06:58:26;;;;;;;25.50;3.67;;;0.50;63.80;;;;;;4173615;28;20033;-83
2022/01/20 07:00:27;;;;;;;31.48;3.50;;;0.50;63.80;;;;;;4168380;28;20033;-82
2022/01/20 07:02:27;;;;;;;25.33;3.13;;;0.50;64.10;;;;;;4153825;28;20075;-83
2022/01/20 07:04:28;;;;;;;27.27;2.78;;;0.50;64.10;;;;;;4156866;28;20037;-83
2022/01/20 07:06:28;;;;;;;30.90;2.80;;;0.50;63.90;;;;;;4173153;28;20500;-83
2022/01/20 07:08:29;;;;;;;28.40;3.13;;;0.50;63.60;;;;;;4170212;28;20076;-83
2022/01/20 07:10:30;;;;;;;27.85;2.33;;;0.50;63.50;;;;;;4178112;28;20032;-83
2022/01/20 07:12:30;;;;;;;21.30;3.03;;;0.50;63.50;;;;;;4172509;28;20033;-83
2022/01/20 07:14:31;;;;;;;21.67;3.22;;;0.50;63.50;;;;;;4176934;28;20435;-83
2022/01/20 07:16:32;;;;;;;18.13;2.47;;;0.50;63.30;;;;;;4175010;28;20067;-83
2022/01/20 07:18:32;;;;;;;16.17;2.15;;;0.50;63.10;;;;;;4174284;28;20032;-83
2022/01/20 07:20:33;;;;;;;20.23;2.20;;;0.50;62.90;;;;;;4179925;28;20023;-83
2022/01/20 07:22:34;;;;;;;21.05;2.40;;;0.50;63.00;;;;;;4181257;28;20021;-82
2022/01/20 07:24:34;;;;;;;18.17;2.28;;;0.50;63.10;;;;;;4182137;28;20389;-83
2022/01/20 07:26:35;;;;;;;25.10;3.05;;;0.60;63.10;;;;;;4181040;28;20075;-83
2022/01/20 07:28:36;;;;;;;25.48;2.95;;;0.60;63.30;;;;;;4181666;28;20144;-83
2022/01/20 07:30:36;;;;;;;37.58;3.10;;;0.60;63.30;;;;;;4180381;28;20029;-82
2022/01/20 07:32:38;;;;;;;25.88;2.83;;;0.60;63.50;;;;;;4179353;28;20033;-82
2022/01/20 07:34:38;;;;;;;20.50;2.28;;;0.60;63.80;;;;;;4180578;28;20036;-83
2022/01/20 07:36:39;;;;;;;22.33;2.53;;;0.60;63.90;;;;;;4180308;28;20022;-82
2022/01/20 07:38:40;;;;;;;29.13;3.33;;;0.60;64.10;;;;;;4180707;28;20025;-82
2022/01/20 07:40:40;;;;;;;18.42;2.47;;;0.50;64.20;;;;;;4180119;28;20363;-82
2022/01/20 07:42:41;;;;;;;19.33;2.80;;;0.50;64.40;;;;;;4177430;28;20088;-82
2022/01/20 07:44:42;;;;;;;20.42;3.38;;;0.50;64.50;;;;;;4184157;28;20025;-82
2022/01/20 07:46:43;;;;;;;20.67;2.53;;;0.50;64.50;;;;;;4195950;28;20055;-82
2022/01/20 07:48:43;;;;;;;32.70;3.45;;;0.50;64.30;;;;;;4177430;28;20103;-82
2022/01/20 07:50:44;;;;;;;18.65;2.67;;;0.50;63.90;;;;;;4193581;28;20382;-83
2022/01/20 07:52:45;;;;;;;18.00;2.60;;;0.50;62.80;;;;;;4178685;28;20040;-82
2022/01/20 07:54:45;;;;;;;20.95;2.58;;;0.50;62.50;;;;;;4210975;28;20047;-82
2022/01/20 07:56:48;;;;;;;16.83;2.00;;;0.50;62.50;;;;;;4178828;28;20059;-83
2022/01/20 07:58:49;;;;;;;16.90;2.38;;;0.60;62.40;;;;;;4180319;28;20028;-82
2022/01/20 08:00:50;;;;;;;20.38;2.35;;;0.60;62.50;;;;;;4181264;28;20021;-83
2022/01/20 08:02:50;;;;;;;16.02;1.95;;;0.60;62.30;;;;;;4170182;28;20024;-82
2022/01/20 08:04:51;;;;;;;17.15;2.63;;;0.60;62.50;;;;;;4177925;28;20078;-82
2022/01/20 08:06:51;;;;;;;16.13;2.03;;;0.60;62.70;;;;;;4176896;28;20531;-82
2022/01/20 08:08:52;;;;;;;17.27;2.33;;;0.60;62.60;;;;;;4177450;28;20029;-83
2022/01/20 08:10:53;;;;;;;21.05;2.25;;;0.50;62.60;;;;;;4150151;28;20041;-82
2022/01/20 08:12:54;;;;;;;21.98;2.15;;;0.60;62.80;;;;;;4181634;28;20051;-82
2022/01/20 08:14:55;;;;;;;18.55;2.45;;;0.60;62.70;;;;;;4176292;28;20124;-82
2022/01/20 08:16:55;;;;;;;20.25;2.25;;;0.60;62.90;;;;;;4156093;28;20026;-82
2022/01/20 08:18:56;;;;;;;12.20;1.73;;;0.60;63.10;;;;;;4180894;28;20041;-82
2022/01/20 08:20:56;;;;;;;12.80;2.00;;;0.50;62.90;;;;;;4183640;28;20028;-83
2022/01/20 08:22:57;;;;;;;19.73;2.38;;;0.60;63.00;;;;;;4180080;28;20436;-82
2022/01/20 08:24:57;;;;;;;22.83;2.30;;;0.60;63.10;;;;;;4180134;28;20163;-82
2022/01/20 08:26:58;;;;;;;19.48;3.25;;;0.60;63.20;;;;;;4177659;28;20035;-82
2022/01/20 08:28:59;;;;;;;19.60;2.33;;;0.60;63.10;;;;;;4162286;28;20597;-83
2022/01/20 08:30:59;;;;;;;15.05;2.50;;;0.60;63.40;;;;;;4176208;28;20021;-83
2022/01/20 08:33:00;;;;;;;16.60;2.30;;;0.60;63.40;;;;;;4183166;28;20025;-83
2022/01/20 08:35:05;;;;;;;12.77;1.95;;;0.70;63.60;;;;;;4176371;28;20402;-83
2022/01/20 08:37:06;;;;;;;23.90;3.05;;;0.60;63.50;;;;;;4179649;28;20036;-83
2022/01/20 08:41:25;;;;;;;27.05;2.63;;;0.70;63.20;;;;;;4180080;28;20540;-83
2022/01/20 08:43:26;;;;;;;27.90;2.75;;;0.60;63.10;;;;;;4177345;28;20021;-83
2022/01/20 08:45:29;;;;;;;26.50;2.70;;;0.70;63.10;;;;;;4179633;28;20454;-83
2022/01/20 08:47:29;;;;;;;20.08;2.60;;;0.70;63.00;;;;;;4178770;28;21245;-83
2022/01/20 08:49:30;;;;;;;19.63;2.53;;;0.60;62.60;;;;;;4179517;28;20020;-83
2022/01/20 08:51:31;;;;;;;20.30;2.40;;;0.70;63.00;;;;;;4193031;28;20064;-83
2022/01/20 08:53:31;;;;;;;18.10;2.40;;;0.70;62.60;;;;;;4179900;28;20071;-83
2022/01/20 08:55:33;;;;;;;17.73;2.88;;;0.70;62.10;;;;;;4175933;28;20037;-83
2022/01/20 08:57:34;;;;;;;20.88;2.33;;;0.70;62.10;;;;;;4179112;28;20033;-83
2022/01/20 08:59:34;;;;;;;14.93;2.20;;;0.70;62.10;;;;;;4210384;28;20031;-83
2022/01/20 09:01:36;;;;;;;22.17;3.03;;;0.70;61.80;;;;;;4180395;28;20025;-83
2022/01/20 09:03:36;;;;;;;15.98;2.33;;;0.70;61.50;;;;;;4180266;28;20127;-83
2022/01/20 09:05:37;;;;;;;16.20;2.38;;;0.80;61.40;;;;;;4181534;28;20639;-82
2022/01/20 09:07:38;;;;;;;19.95;1.90;;;0.80;61.40;;;;;;4176944;28;20167;-82
2022/01/20 09:09:43;;;;;;;21.98;2.55;;;0.80;60.80;;;;;;4208855;28;20036;-83
2022/01/20 09:12:02;;;;;;;23.45;2.35;;;0.80;60.30;;;;;;4175937;28;20653;-83
2022/01/20 09:16:22;;;;;;;19.60;2.38;;;0.80;60.30;;;;;;4177638;28;20040;-83
2022/01/20 09:18:24;;;;;;;23.45;2.70;;;0.80;60.70;;;;;;4174333;28;20482;-83
2022/01/20 09:20:24;;;;;;;19.83;2.55;;;0.90;60.80;;;;;;4177280;28;20493;-82
2022/01/20 09:22:27;;;;;;;12.88;1.73;;;0.80;60.00;;;;;;4178695;28;20052;-83
2022/01/20 09:24:28;;;;;;;18.73;2.72;;;0.90;60.40;;;;;;4175439;28;20454;-83
2022/01/20 09:26:28;;;;;;;26.52;3.08;;;0.90;60.20;;;;;;4178751;28;20025;-83
2022/01/20 09:28:29;;;;;;;21.00;2.75;;;0.90;60.30;;;;;;4176869;28;20385;-83
2022/01/20 09:30:29;;;;;;;19.83;2.35;;;1.00;60.30;;;;;;4182224;28;20029;-83
2022/01/20 09:32:33;;;;;;;19.88;2.47;;;1.00;60.20;;;;;;4178706;28;20025;-82
2022/01/20 09:34:33;;;;;;;;;;;1.00;59.90;;;;;;4180597;28;20477;-83
2022/01/20 09:36:34;;;;;;;24.33;2.55;;;1.00;59.90;;;;;;4176873;28;19915;-83
2022/01/20 09:38:35;;;;;;;19.25;2.03;;;1.00;60.30;;;;;;4179755;28;20101;-83
2022/01/20 09:40:36;;;;;;;20.30;2.65;;;1.10;60.00;;;;;;4177363;28;20096;-82
2022/01/20 09:42:36;;;;;;;24.90;2.67;;;1.10;59.90;;;;;;4177512;28;20644;-84
2022/01/20 09:44:42;;;;;;;22.73;2.65;;;1.10;59.90;;;;;;4210454;28;20020;-82
2022/01/20 09:46:44;;;;;;;14.40;2.22;;;1.10;59.90;;;;;;4152839;28;20113;-83
2022/01/20 09:48:44;;;;;;;16.10;2.40;;;1.20;59.60;;;;;;4177876;28;20033;-83
2022/01/20 09:50:46;;;;;;;19.30;2.38;;;1.20;59.60;;;;;;4193015;28;20477;-83
2022/01/20 09:52:48;;;;;;;23.67;2.53;;;1.20;59.20;;;;;;4177409;28;20029;-83
2022/01/20 09:54:48;;;;;;;27.23;3.22;;;1.20;59.60;;;;;;4179590;28;20051;-82
2022/01/20 09:56:49;;;;;;;16.95;1.95;;;1.30;59.80;;;;;;4178083;28;20025;-83
2022/01/20 09:58:49;;;;;;;18.02;2.35;;;1.30;59.30;;;;;;4175479;28;20037;-83
2022/01/20 10:00:51;;;;;;;18.13;2.35;;;1.30;58.70;;;;;;4176083;28;20044;-82
2022/01/20 10:03:00;;;;;;;23.50;3.10;;;1.40;59.10;;;;;;4176344;28;20501;-83
2022/01/20 10:05:01;;;;;;;12.88;2.00;;;1.40;58.80;;;;;;4176830;28;20033;-82
2022/01/20 10:07:08;;;;;;;15.75;2.78;;;1.50;58.80;;;;;;4178684;28;20120;-83
2022/01/20 10:09:09;;;;;;;24.08;3.08;;;1.60;58.70;;;;;;4176970;28;20071;-83
2022/01/20 10:11:10;;;;;;;21.80;2.25;;;1.60;59.00;;;;;;4177412;28;20051;-83
2022/01/20 10:13:11;;;;;;;11.70;2.60;;;1.70;57.40;;;;;;4181691;28;20382;-83
2022/01/20 10:15:12;;;;;;;19.23;2.17;;;1.70;57.20;;;;;;4178896;28;20021;-82
2022/01/20 10:17:23;;;;;;;15.25;1.80;;;1.80;56.90;;;;;;4177648;28;20028;-82
2022/01/20 10:19:26;;;;;;;9.80;2.03;;;1.80;56.80;;;;;;4176845;28;20556;-83
2022/01/20 10:21:31;;;;;;;21.45;2.40;;;1.80;56.80;;;;;;4178222;28;20048;-82
2022/01/20 10:23:47;;;;;;;20.10;2.80;;;1.90;56.50;;;;;;4160643;28;20021;-83
2022/01/20 10:25:47;;;;;;;19.95;3.72;;;1.90;56.70;;;;;;4177298;28;20028;-83
2022/01/20 10:27:50;;;;;;;16.30;2.25;;;1.90;56.30;;;;;;4177969;28;20482;-83
2022/01/20 10:30:04;;;;;;;22.75;4.13;;;1.90;54.60;;;;;;4174114;28;20112;-83
2022/01/20 10:32:05;;;;;;;13.50;2.67;;;1.90;53.50;;;;;;4190344;28;20029;-83
2022/01/20 10:34:35;;;;;;;9.63;2.20;;;1.90;53.00;;;;;;4175450;28;20037;-83
2022/01/20 10:36:40;;;;;;;10.98;1.80;;;2.00;53.00;;;;;;4172121;28;20128;-82
2022/01/20 10:38:51;;;;;;;13.43;2.15;;;1.90;52.70;;;;;;4177547;28;20024;-84
2022/01/20 10:40:59;;;;;;;20.73;1.80;;;2.00;52.70;;;;;;4177368;28;20116;-83
2022/01/20 10:42:59;;;;;;;13.73;1.85;;;2.00;52.10;;;;;;4178698;28;20582;-83
2022/01/20 10:45:00;;;;;;;12.18;1.55;;;2.10;51.50;;;;;;4175551;28;20025;-83
2022/01/20 10:47:00;;;;;;;28.88;2.30;;;2.10;51.30;;;;;;4175360;28;20099;-83
2022/01/20 10:49:01;;;;;;;10.18;1.73;;;2.10;52.00;;;;;;4176579;28;20031;-83
2022/01/20 10:51:02;;;;;;;11.10;1.98;;;2.10;50.60;;;;;;4176787;28;20082;-83
2022/01/20 10:53:02;;;;;;;14.80;1.95;;;2.10;51.30;;;;;;4182515;28;20025;-83
2022/01/20 10:55:03;;;;;;;13.40;2.72;;;2.10;51.70;;;;;;4176369;28;20353;-82
2022/01/20 10:57:04;;;;;;;15.13;1.77;;;2.10;50.50;;;;;;4176931;28;20025;-83
2022/01/20 10:59:08;;;;;;;20.38;1.67;;;2.10;50.80;;;;;;4177245;28;20083;-83
2022/01/20 11:01:15;;;;;;;10.18;1.55;;;2.10;51.30;;;;;;4152296;28;20017;-84
2022/01/20 11:03:15;;;;;;;15.57;1.70;;;2.10;51.20;;;;;;4179022;28;20029;-83
2022/01/20 11:05:17;;;;;;;13.85;1.60;;;2.10;51.40;;;;;;4175008;28;20045;-83
2022/01/20 11:07:18;;;;;;;14.15;2.15;;;2.20;51.90;;;;;;4195875;28;20137;-84
2022/01/20 11:09:20;;;;;;;14.68;1.60;;;2.20;51.30;;;;;;4177324;28;20092;-84
2022/01/20 11:11:21;;;;;;;20.20;2.30;;;2.20;51.60;;;;;;4178173;28;20466;-83
2022/01/20 11:13:22;;;;;;;14.45;1.67;;;2.30;51.00;;;;;;4177405;28;20108;-83
2022/01/20 11:15:25;;;;;;;12.90;1.95;;;2.30;51.00;;;;;;4178243;28;20436;-84
2022/01/20 11:17:27;;;;;;;10.65;1.33;;;2.30;49.20;;;;;;4179710;28;20565;-83
2022/01/20 11:19:31;;;;;;;13.80;2.13;;;2.20;49.70;;;;;;4192937;28;20070;-83
2022/01/20 11:21:31;;;;;;;17.27;1.88;;;2.20;49.70;;;;;;4209056;28;20504;-83
2022/01/20 11:23:42;;;;;;;21.92;2.58;;;2.20;49.60;;;;;;4178639;28;20036;-83
2022/01/20 11:25:44;;;;;;;14.05;1.98;;;2.30;50.80;;;;;;4177226;28;20033;-83
2022/01/20 11:27:44;;;;;;;13.23;1.45;;;2.20;51.60;;;;;;4176865;28;20079;-83
2022/01/20 11:29:49;;;;;;;11.38;2.22;;;2.20;52.60;;;;;;4177558;28;20156;-83
2022/01/20 11:31:50;;;;;;;15.50;1.88;;;2.10;51.70;;;;;;4176902;28;20029;-83
2022/01/20 11:33:51;;;;;;;11.07;1.83;;;2.00;52.50;;;;;;4175832;28;20042;-83
2022/01/20 11:35:56;;;;;;;15.45;1.88;;;1.90;52.90;;;;;;4168426;28;20036;-83
2022/01/20 11:37:57;;;;;;;4.78;1.10;;;1.80;53.20;;;;;;4178490;28;20382;-83
2022/01/20 11:40:14;;;;;;;15.13;1.88;;;1.70;53.90;;;;;;4179033;28;20378;-83
2022/01/20 11:42:25;;;;;;;11.65;1.25;;;1.60;54.50;;;;;;4172771;28;20033;-83